Time;durP1;ratioP1;P1;durP2;ratioP2;P2;SDS_P1;SDS_P2;PMS_P1;PMS_P2;Temp;Humidity;BMP_temperature;BMP_pressure;BME280_temperature;BME280_humidity;BME280_pressure;Samples;Min_cycle;Max_cycle;Signal;HPM_P1;HPM_P2
2023/07/09 00:01:52;;;;;;;11.32;4.20;;;;;;;25.83;51.97;100041.22;5116622;28;20023;-68
2023/07/09 00:04:18;;;;;;;8.83;3.40;;;;;;;25.82;51.90;100039.50;5116930;28;20023;-68
2023/07/09 00:06:45;;;;;;;8.60;3.33;;;;;;;25.82;51.81;100042.22;5116746;28;20022;-68
2023/07/09 00:09:21;;;;;;;12.75;4.90;;;;;;;25.79;52.70;100041.47;5119335;28;20395;-68
2023/07/09 00:11:47;;;;;;;9.68;3.78;;;;;;;25.72;52.71;100040.19;5120740;28;20019;-68
2023/07/09 00:14:15;;;;;;;10.05;3.55;;;;;;;25.63;52.96;100043.53;5120380;28;20110;-68
2023/07/09 00:16:42;;;;;;;11.17;4.23;;;;;;;25.61;52.68;100037.38;5120384;28;20076;-68
2023/07/09 00:19:13;;;;;;;9.80;3.67;;;;;;;25.59;53.17;100042.91;5117953;28;20102;-68
2023/07/09 00:21:40;;;;;;;11.38;4.63;;;;;;;25.59;52.79;100044.72;5101692;28;20127;-68
2023/07/09 00:24:10;;;;;;;11.73;3.83;;;;;;;25.60;53.00;100043.75;5101903;28;20023;-68
2023/07/09 00:26:37;;;;;;;9.30;3.70;;;;;;;25.58;53.59;100037.59;5120483;28;20031;-68
2023/07/09 00:29:03;;;;;;;10.63;4.00;;;;;;;25.57;53.32;100035.88;5120120;28;20076;-68
2023/07/09 00:31:28;;;;;;;9.60;3.50;;;;;;;25.53;53.64;100040.59;5120186;28;20051;-68
2023/07/09 00:33:55;;;;;;;9.07;3.43;;;;;;;25.50;53.41;100039.00;5120021;28;20035;-68
2023/07/09 00:36:31;;;;;;;9.43;3.50;;;;;;;25.48;54.34;100038.25;5120004;28;20106;-68
2023/07/09 00:39:00;;;;;;;8.65;3.28;;;;;;;25.47;53.87;100039.22;5120049;28;20510;-68
2023/07/09 00:41:28;;;;;;;10.40;3.70;;;;;;;25.45;54.00;100033.06;5101749;28;20016;-68
2023/07/09 00:43:53;;;;;;;8.38;3.42;;;;;;;25.44;53.67;100031.34;5119619;28;20012;-68
2023/07/09 00:46:18;;;;;;;9.37;3.53;;;;;;;25.42;53.94;100030.56;5101803;28;20107;-68
2023/07/09 00:48:50;;;;;;;8.20;3.63;;;;;;;25.39;54.43;100028.06;5119818;28;20016;-68
2023/07/09 00:51:22;;;;;;;8.13;3.55;;;;;;;25.40;54.04;100028.94;5119601;28;20024;-68
2023/07/09 00:53:51;;;;;;;9.73;3.70;;;;;;;25.37;54.55;100024.63;5119560;28;20028;-68
2023/07/09 00:56:24;;;;;;;10.55;3.35;;;;;;;25.33;54.46;100023.13;5119496;28;20027;-68
2023/07/09 00:58:49;;;;;;;14.23;4.13;;;;;;;25.28;54.45;100020.75;5119556;28;20031;-68
2023/07/09 01:01:18;;;;;;;9.10;3.20;;;;;;;25.27;54.65;100015.47;5101227;28;20024;-68
2023/07/09 01:03:47;;;;;;;9.80;3.95;;;;;;;25.22;54.43;100011.28;5119523;28;20016;-68
2023/07/09 01:06:13;;;;;;;14.93;3.83;;;;;;;25.20;54.92;100006.94;5100851;28;20019;-68
2023/07/09 01:08:42;;;;;;;9.50;3.80;;;;;;;25.19;55.01;100006.06;5119587;28;20047;-68
2023/07/09 01:11:21;;;;;;;10.18;3.60;;;;;;;25.17;54.84;100007.16;5119405;28;20019;-68
2023/07/09 01:13:52;;;;;;;8.02;3.65;;;;;;;25.16;55.02;100005.44;5119264;28;20027;-68
2023/07/09 01:16:19;;;;;;;10.10;3.75;;;;;;;25.15;55.45;100003.72;5119073;28;20019;-68
2023/07/09 01:18:45;;;;;;;10.02;3.85;;;;;;;25.15;55.09;99999.19;5116289;28;20027;-68
2023/07/09 01:21:15;;;;;;;12.07;3.73;;;;;;;25.15;55.24;100009.09;5119201;28;20455;-68
2023/07/09 01:23:46;;;;;;;8.68;3.30;;;;;;;25.13;55.31;100003.81;5119161;28;20046;-68
2023/07/09 01:26:13;;;;;;;9.70;3.63;;;;;;;25.12;55.68;100004.78;5106187;28;20487;-68
2023/07/09 01:28:41;;;;;;;10.10;3.63;;;;;;;25.07;55.31;99999.72;5119020;28;20031;-68
2023/07/09 01:31:08;;;;;;;11.82;3.70;;;;;;;25.05;55.50;99992.72;5119266;28;20111;-68
2023/07/09 01:33:33;;;;;;;8.43;3.90;;;;;;;25.03;55.60;99992.81;5118764;28;20031;-68
2023/07/09 01:36:00;;;;;;;10.83;4.17;;;;;;;25.03;55.79;99997.34;5119174;28;20027;-68
2023/07/09 01:38:30;;;;;;;9.10;3.60;;;;;;;25.06;55.79;99997.13;5118697;28;20030;-68
2023/07/09 01:40:56;;;;;;;9.00;3.63;;;;;;;24.97;55.51;99992.41;5100522;28;20031;-68
2023/07/09 01:43:22;;;;;;;10.97;4.00;;;;;;;24.92;55.44;99980.09;5118781;28;20125;-68
2023/07/09 01:45:50;;;;;;;12.30;4.20;;;;;;;24.91;55.82;99989.13;5118517;28;20106;-68
2023/07/09 01:48:15;;;;;;;10.18;3.67;;;;;;;24.90;55.62;99973.94;5118800;28;20086;-68
2023/07/09 01:50:43;;;;;;;8.73;3.80;;;;;;;24.89;55.80;99974.06;5118837;28;20506;-68
2023/07/09 01:53:12;;;;;;;10.70;4.00;;;;;;;24.88;55.26;99972.34;5099980;28;20030;-68
2023/07/09 01:55:37;;;;;;;10.32;3.90;;;;;;;24.85;55.52;99981.47;5118427;28;20030;-68
2023/07/09 01:58:07;;;;;;;9.40;3.53;;;;;;;24.84;55.45;99979.75;5118249;28;20529;-68
2023/07/09 02:00:36;;;;;;;9.63;3.55;;;;;;;24.85;55.71;99984.19;5118554;28;20030;-68
2023/07/09 02:03:02;;;;;;;8.55;3.80;;;;;;;24.86;55.54;99987.75;5118352;28;20426;-68
2023/07/09 02:05:31;;;;;;;12.90;4.10;;;;;;;24.84;55.99;99981.56;5118512;28;20030;-68
2023/07/09 02:07:56;;;;;;;10.00;3.80;;;;;;;24.78;55.71;99980.19;5118020;28;20019;-68
2023/07/09 02:10:22;;;;;;;12.83;4.13;;;;;;;24.74;56.08;99978.66;5118125;28;20105;-68
2023/07/09 02:12:48;;;;;;;9.32;3.75;;;;;;;24.69;55.88;99980.75;5118170;28;20051;-68
2023/07/09 02:15:14;;;;;;;14.40;4.00;;;;;;;24.65;56.17;99986.38;5117795;28;20111;-68
2023/07/09 02:17:40;;;;;;;8.60;3.45;;;;;;;24.64;55.94;99981.94;5117694;28;20023;-68
2023/07/09 02:20:07;;;;;;;9.50;4.25;;;;;;;24.63;56.36;99988.31;5118224;28;20396;-68
2023/07/09 02:22:36;;;;;;;11.00;3.97;;;;;;;24.61;55.99;99974.09;5118006;28;20043;-68
2023/07/09 02:25:02;;;;;;;13.10;4.37;;;;;;;24.58;56.38;99976.09;5117919;28;20035;-68
2023/07/09 02:27:28;;;;;;;10.57;3.78;;;;;;;24.58;56.05;99978.81;5099485;28;20028;-68
2023/07/09 02:29:54;;;;;;;10.32;3.97;;;;;;;24.58;56.29;99968.91;5117824;28;20476;-68
2023/07/09 02:32:25;;;;;;;10.88;3.75;;;;;;;24.58;56.38;99974.28;5117010;28;20043;-68
2023/07/09 02:34:52;;;;;;;8.70;4.10;;;;;;;24.55;56.80;99969.13;5117995;28;20023;-68
2023/07/09 02:37:19;;;;;;;11.05;3.80;;;;;;;24.54;56.83;99969.22;5117576;28;20020;-68
2023/07/09 02:39:44;;;;;;;9.55;4.07;;;;;;;24.50;56.74;99972.13;5117498;28;20480;-68
2023/07/09 02:42:11;;;;;;;8.63;4.00;;;;;;;24.41;57.04;99971.88;5117779;28;20421;-68
2023/07/09 02:44:37;;;;;;;10.95;4.40;;;;;;;24.37;57.46;99977.47;5117744;28;20019;-68
2023/07/09 02:47:02;;;;;;;9.35;4.00;;;;;;;24.35;57.74;99973.13;5117391;28;20083;-68
2023/07/09 02:49:27;;;;;;;11.20;4.27;;;;;;;24.35;57.41;99974.00;5117654;28;20027;-68
2023/07/09 02:51:53;;;;;;;10.23;4.20;;;;;;;24.35;57.78;99976.69;5098887;28;20027;-68
2023/07/09 02:54:18;;;;;;;11.53;4.43;;;;;;;24.33;57.92;99973.25;5117359;28;20019;-68
2023/07/09 02:56:44;;;;;;;10.90;4.23;;;;;;;24.30;57.84;99967.19;5117117;28;20459;-68
2023/07/09 02:59:09;;;;;;;12.23;4.20;;;;;;;24.23;58.18;99961.34;5099371;28;20749;-68
2023/07/09 03:01:35;;;;;;;9.13;3.83;;;;;;;24.20;58.76;99966.94;5117256;28;20079;-68
2023/07/09 03:04:03;;;;;;;11.07;4.30;;;;;;;24.20;58.50;99985.78;5117394;28;20016;-68
2023/07/09 03:06:32;;;;;;;10.80;4.35;;;;;;;24.17;58.96;99996.75;5117123;28;20102;-69
2023/07/09 03:08:58;;;;;;;10.80;4.17;;;;;;;24.14;58.94;99995.13;5117395;28;20452;-68
2023/07/09 03:11:24;;;;;;;12.07;4.70;;;;;;;24.11;59.38;99998.00;5098476;28;20051;-68
2023/07/09 03:13:49;;;;;;;14.10;4.67;;;;;;;24.06;59.38;100000.13;5117133;28;20495;-68
2023/07/09 03:16:16;;;;;;;9.82;4.25;;;;;;;24.05;59.43;100009.16;5116971;28;20055;-68
2023/07/09 03:18:41;;;;;;;12.27;4.77;;;;;;;24.01;59.89;100021.97;5115258;28;20028;-68
2023/07/09 03:21:06;;;;;;;11.88;4.63;;;;;;;23.90;60.24;100024.44;5116904;28;20027;-68
2023/07/09 03:23:32;;;;;;;11.80;4.80;;;;;;;23.84;60.24;100014.94;5117102;28;20031;-68
2023/07/09 03:25:59;;;;;;;14.53;4.43;;;;;;;23.84;60.43;100022.16;5117007;28;20024;-68
2023/07/09 03:28:24;;;;;;;13.63;4.35;;;;;;;23.83;60.73;100033.88;5098871;28;20042;-68
2023/07/09 03:30:54;;;;;;;11.50;4.40;;;;;;;23.79;60.84;100034.06;5116903;28;20076;-68
2023/07/09 03:33:20;;;;;;;10.15;4.60;;;;;;;23.79;60.54;100038.56;5117028;28;20098;-68
2023/07/09 03:35:45;;;;;;;14.10;4.60;;;;;;;23.79;60.64;100039.44;5116949;28;20031;-68
2023/07/09 03:38:12;;;;;;;13.50;4.57;;;;;;;23.73;60.73;100036.28;5116991;28;20019;-68
2023/07/09 03:40:38;;;;;;;13.37;4.93;;;;;;;23.71;61.22;100033.66;5116945;28;20036;-68
2023/07/09 03:43:08;;;;;;;11.00;4.72;;;;;;;23.65;61.29;100036.75;5101499;28;20024;-68
2023/07/09 03:45:34;;;;;;;12.65;4.70;;;;;;;23.60;61.46;100030.81;5120821;28;20023;-68
2023/07/09 03:48:00;;;;;;;12.35;4.35;;;;;;;23.54;61.60;100028.50;5120965;28;20031;-68
2023/07/09 03:50:25;;;;;;;12.73;4.80;;;;;;;23.50;61.77;100036.72;5102679;28;20080;-68
2023/07/09 03:52:51;;;;;;;12.27;4.57;;;;;;;23.50;61.75;100025.13;5120923;28;20024;-68
2023/07/09 03:55:16;;;;;;;11.93;4.43;;;;;;;23.54;61.56;100023.13;5102637;28;20030;-68
2023/07/09 03:57:42;;;;;;;10.97;4.50;;;;;;;23.55;61.95;100027.53;5102249;28;20457;-68
2023/07/09 04:00:11;;;;;;;11.80;4.53;;;;;;;23.53;61.47;100029.47;5120650;28;20023;-68
2023/07/09 04:02:37;;;;;;;11.80;4.28;;;;;;;23.54;61.72;100031.19;5120875;28;20377;-68
2023/07/09 04:05:03;;;;;;;9.77;4.00;;;;;;;23.56;61.78;100029.28;5120599;28;20616;-68
2023/07/09 04:07:29;;;;;;;11.88;4.53;;;;;;;23.56;61.63;100031.97;5120272;28;20024;-68
2023/07/09 04:09:54;;;;;;;8.13;4.07;;;;;;;23.57;61.77;100036.38;5102150;28;20027;-68
2023/07/09 04:12:20;;;;;;;11.20;4.43;;;;;;;23.59;61.86;100034.44;5120681;28;20475;-68
2023/07/09 04:14:45;;;;;;;9.10;3.70;;;;;;;23.61;61.76;100032.53;5120556;28;20020;-68
2023/07/09 04:17:11;;;;;;;10.47;4.40;;;;;;;23.62;61.66;100026.19;5118363;28;20027;-68
2023/07/09 04:19:37;;;;;;;10.30;4.20;;;;;;;23.64;61.64;100029.66;5120186;28;20030;-68
2023/07/09 04:22:02;;;;;;;10.20;3.97;;;;;;;23.65;61.70;100026.00;5120364;28;20042;-68
2023/07/09 04:24:28;;;;;;;10.87;4.30;;;;;;;23.63;61.62;100030.59;5120362;28;20016;-68
2023/07/09 04:26:56;;;;;;;11.47;4.30;;;;;;;23.61;61.32;100032.53;5101998;28;20811;-68
2023/07/09 04:29:22;;;;;;;8.82;3.63;;;;;;;23.63;61.55;100044.03;5101922;28;20020;-68
2023/07/09 04:31:47;;;;;;;12.98;4.22;;;;;;;23.63;61.69;100041.34;5120096;28;20108;-68
2023/07/09 04:34:13;;;;;;;9.03;4.00;;;;;;;23.61;61.20;100045.97;5120243;28;20023;-68
2023/07/09 04:36:38;;;;;;;9.83;3.80;;;;;;;23.60;61.33;100045.09;5119985;28;20023;-68
2023/07/09 04:39:04;;;;;;;11.60;3.57;;;;;;;23.62;61.51;100045.00;5120394;28;20092;-68
2023/07/09 04:41:29;;;;;;;9.88;4.25;;;;;;;23.60;61.34;100046.94;5119991;28;20082;-68
2023/07/09 04:43:55;;;;;;;10.87;3.93;;;;;;;23.57;61.58;100052.50;5119915;28;20016;-68
2023/07/09 04:46:20;;;;;;;11.43;4.30;;;;;;;23.57;61.55;100058.72;5119991;28;20027;-68
2023/07/09 04:48:45;;;;;;;11.68;4.50;;;;;;;23.51;61.72;100054.63;5120074;28;20059;-68
2023/07/09 04:51:11;;;;;;;11.23;4.13;;;;;;;23.48;61.98;100054.78;5119744;28;20092;-68
2023/07/09 04:53:36;;;;;;;12.83;4.47;;;;;;;23.44;61.87;100055.94;5118767;28;20024;-68
2023/07/09 04:56:02;;;;;;;11.57;3.90;;;;;;;23.40;61.96;100065.16;5119530;28;20035;-68
2023/07/09 04:58:28;;;;;;;11.23;3.85;;;;;;;23.42;61.83;100062.38;5119574;28;20068;-68
2023/07/09 05:00:57;;;;;;;10.80;3.90;;;;;;;23.42;61.78;100063.22;5119901;28;20027;-68
2023/07/09 05:03:22;;;;;;;10.82;3.78;;;;;;;23.40;61.48;100065.16;5119428;28;20437;-68
2023/07/09 05:05:48;;;;;;;10.63;4.13;;;;;;;23.47;61.51;100073.69;5119583;28;20116;-68
2023/07/09 05:08:14;;;;;;;9.67;4.00;;;;;;;23.57;61.29;100079.38;5119331;28;20046;-68
2023/07/09 05:10:49;;;;;;;10.30;3.70;;;;;;;23.57;61.28;100085.59;5119637;28;20081;-68
2023/07/09 05:13:15;;;;;;;14.20;4.65;;;;;;;23.60;61.25;100081.88;5088423;28;20023;-68
2023/07/09 05:15:45;;;;;;;12.10;4.27;;;;;;;23.66;60.98;100086.84;5119173;28;20364;-68
2023/07/09 05:18:11;;;;;;;11.00;4.40;;;;;;;23.63;60.85;100085.25;5117252;28;20027;-68
2023/07/09 05:20:36;;;;;;;15.18;4.43;;;;;;;23.56;61.35;100085.72;5119246;28;20034;-68
2023/07/09 05:23:02;;;;;;;11.13;4.00;;;;;;;23.53;61.59;100093.97;5119216;28;20426;-68
2023/07/09 05:25:28;;;;;;;9.30;3.83;;;;;;;23.69;61.11;100094.72;5100851;28;20084;-68
2023/07/09 05:27:53;;;;;;;14.40;4.53;;;;;;;23.87;60.90;100097.25;5118827;28;20028;-68
2023/07/09 05:30:19;;;;;;;12.30;4.20;;;;;;;23.97;60.53;100109.13;5119074;28;20080;-68
2023/07/09 05:32:45;;;;;;;10.43;4.38;;;;;;;24.10;60.36;100098.50;5119124;28;20644;-68
2023/07/09 05:35:11;;;;;;;11.38;4.15;;;;;;;24.25;60.04;100096.69;5119265;28;20092;-68
2023/07/09 05:37:37;;;;;;;10.60;4.20;;;;;;;24.37;59.72;100098.56;5100411;28;20026;-68
2023/07/09 05:40:05;;;;;;;10.18;4.25;;;;;;;24.42;60.04;100102.78;5118877;28;20024;-68
2023/07/09 05:42:31;;;;;;;12.70;4.10;;;;;;;24.27;60.39;100110.00;5119003;28;20394;-68
2023/07/09 05:44:56;;;;;;;13.13;4.50;;;;;;;24.28;60.20;100118.00;5118709;28;20094;-68
2023/07/09 05:47:21;;;;;;;11.37;4.40;;;;;;;24.39;60.13;100113.75;5100498;28;20279;-68
2023/07/09 05:49:49;;;;;;;12.53;4.73;;;;;;;24.35;60.80;100123.81;5118592;28;20026;-68
2023/07/09 05:52:15;;;;;;;12.77;4.88;;;;;;;24.50;60.31;100119.31;5118721;28;20181;-68
2023/07/09 05:54:40;;;;;;;10.77;4.70;;;;;;;24.62;60.06;100121.19;5118652;28;20079;-68
2023/07/09 05:57:06;;;;;;;11.23;5.00;;;;;;;24.74;59.77;100119.50;5118441;28;20044;-68
2023/07/09 05:59:31;;;;;;;12.40;5.43;;;;;;;24.89;60.16;100123.03;5099839;28;20031;-68
2023/07/09 06:01:57;;;;;;;14.23;6.67;;;;;;;24.94;60.31;100130.84;5118635;28;20027;-68
2023/07/09 06:04:22;;;;;;;15.95;7.40;;;;;;;24.92;60.99;100125.53;5118438;28;20072;-68
2023/07/09 06:06:47;;;;;;;12.27;6.97;;;;;;;25.01;60.88;100123.22;5118349;28;20034;-68
2023/07/09 06:09:13;;;;;;;14.30;7.10;;;;;;;25.13;60.30;100130.44;5100030;28;20056;-68
2023/07/09 06:11:38;;;;;;;16.97;7.93;;;;;;;25.27;60.86;100134.91;5100113;28;20020;-68
2023/07/09 06:14:04;;;;;;;14.50;7.93;;;;;;;25.47;60.71;100133.59;5118136;28;20375;-68
2023/07/09 06:16:29;;;;;;;12.70;7.93;;;;;;;25.62;60.19;100141.56;5118068;28;20023;-68
2023/07/09 06:18:54;;;;;;;17.20;8.37;;;;;;;25.76;59.83;100140.59;5115248;28;20016;-68
2023/07/09 06:21:20;;;;;;;16.97;9.20;;;;;;;25.86;60.36;100133.59;5118153;28;20031;-68
2023/07/09 06:23:46;;;;;;;18.70;9.23;;;;;;;25.95;60.15;100132.09;5117824;28;20047;-68
2023/07/09 06:26:12;;;;;;;20.38;10.63;;;;;;;25.94;60.88;100135.75;5099737;28;20048;-68
2023/07/09 06:28:37;;;;;;;18.33;10.50;;;;;;;26.01;60.57;100147.84;5099663;28;20031;-68
2023/07/09 06:31:03;;;;;;;19.80;10.73;;;;;;;26.14;60.87;100153.22;5117810;28;20391;-68
2023/07/09 06:33:29;;;;;;;17.70;10.57;;;;;;;26.30;60.82;100150.31;5099585;28;20023;-68
2023/07/09 06:35:57;;;;;;;19.40;12.00;;;;;;;26.50;60.61;100159.66;5117982;28;20023;-68
2023/07/09 06:38:23;;;;;;;20.13;11.63;;;;;;;26.64;60.23;100149.69;5099354;28;20019;-68
2023/07/09 06:40:48;;;;;;;22.10;12.83;;;;;;;26.73;60.13;100156.25;5117774;28;20078;-68
2023/07/09 06:43:14;;;;;;;20.48;13.27;;;;;;;26.79;60.11;100153.97;5117823;28;20023;-68
2023/07/09 06:45:48;;;;;;;20.97;11.87;;;;;;;26.91;60.19;100154.91;5117553;28;20032;-68
2023/07/09 06:48:13;;;;;;;21.00;12.73;;;;;;;26.98;60.11;100162.56;5117718;28;20552;-68
2023/07/09 06:50:39;;;;;;;18.70;12.37;;;;;;;26.97;59.89;100156.28;5117786;28;20081;-68
2023/07/09 06:53:04;;;;;;;18.57;11.50;;;;;;;26.96;59.91;100159.09;5117360;28;20498;-69
2023/07/09 06:55:30;;;;;;;19.70;12.50;;;;;;;26.89;60.25;100158.69;5117283;28;20059;-68
2023/07/09 06:57:55;;;;;;;18.88;12.23;;;;;;;26.82;60.02;100163.66;5117244;28;20102;-68
2023/07/09 07:00:21;;;;;;;20.73;12.27;;;;;;;26.75;60.23;100170.50;5117551;28;20057;-68
2023/07/09 07:02:46;;;;;;;18.97;12.17;;;;;;;26.79;60.70;100169.28;5117452;28;20023;-68
2023/07/09 07:05:11;;;;;;;20.40;12.60;;;;;;;26.89;60.62;100167.69;5117573;28;20262;-68
2023/07/09 07:07:37;;;;;;;22.47;12.70;;;;;;;26.93;60.24;100171.88;5117276;28;20096;-68
2023/07/09 07:10:03;;;;;;;21.63;13.47;;;;;;;27.06;59.84;100173.63;5117185;28;20020;-68
2023/07/09 07:12:29;;;;;;;21.65;13.65;;;;;;;27.14;60.15;100178.47;5117435;28;20027;-68
2023/07/09 07:14:55;;;;;;;24.02;14.63;;;;;;;27.00;60.22;100177.66;5117245;28;20074;-68
2023/07/09 07:17:21;;;;;;;22.27;13.57;;;;;;;26.86;60.27;100185.94;5114552;28;20012;-68
2023/07/09 07:19:46;;;;;;;21.73;13.60;;;;;;;26.86;60.61;100185.94;5117350;28;20035;-68
2023/07/09 07:22:12;;;;;;;20.10;13.10;;;;;;;26.85;60.33;100195.03;5117191;28;20519;-68
2023/07/09 07:24:38;;;;;;;25.40;13.95;;;;;;;26.84;60.52;100191.41;5117195;28;20039;-68
2023/07/09 07:27:03;;;;;;;19.93;12.57;;;;;;;26.86;60.05;100196.75;5117231;28;20036;-68
2023/07/09 07:29:29;;;;;;;20.08;12.45;;;;;;;26.83;60.17;100203.19;5117211;28;20034;-68
2023/07/09 07:31:54;;;;;;;23.17;13.23;;;;;;;26.85;60.56;100203.97;5117029;28;20035;-68
2023/07/09 07:34:20;;;;;;;19.53;12.27;;;;;;;26.87;60.30;100210.13;5117270;28;20035;-68
2023/07/09 07:36:45;;;;;;;21.47;13.47;;;;;;;26.82;60.24;100220.38;5116989;28;20023;-68
2023/07/09 07:39:11;;;;;;;19.33;14.07;;;;;;;26.81;60.80;100221.38;5117379;28;20749;-68
2023/07/09 07:41:36;;;;;;;23.03;13.90;;;;;;;26.94;60.38;100218.66;5098456;28;20030;-68
2023/07/09 07:44:02;;;;;;;23.87;13.57;;;;;;;27.18;59.61;100221.38;5117152;28;20023;-69
2023/07/09 07:46:28;;;;;;;18.40;12.55;;;;;;;27.43;59.62;100221.34;5117009;28;20107;-68
2023/07/09 07:48:54;;;;;;;20.05;13.73;;;;;;;27.67;59.01;100234.00;5117185;28;20070;-68
2023/07/09 07:51:22;;;;;;;21.47;13.73;;;;;;;27.90;59.03;100234.97;5116894;28;20391;-69
2023/07/09 07:53:48;;;;;;;21.98;14.73;;;;;;;28.11;58.10;100243.22;5098364;28;20032;-68
2023/07/09 07:56:14;;;;;;;23.85;14.15;;;;;;;28.22;57.69;100245.13;5116654;28;20080;-68
2023/07/09 07:58:39;;;;;;;22.20;14.27;;;;;;;28.30;57.56;100241.81;5116970;28;20024;-69
2023/07/09 08:01:05;;;;;;;21.60;13.37;;;;;;;28.36;57.34;100242.19;5116884;28;20114;-68
2023/07/09 08:03:30;;;;;;;19.37;13.67;;;;;;;28.49;57.50;100252.03;5116920;28;20425;-68
2023/07/09 08:05:55;;;;;;;19.13;12.82;;;;;;;28.56;57.12;100242.41;5116574;28;20079;-69
2023/07/09 08:08:21;;;;;;;19.67;13.53;;;;;;;28.65;56.74;100251.66;5116954;28;20024;-69
2023/07/09 08:10:46;;;;;;;19.43;12.80;;;;;;;28.64;56.82;100256.22;5116833;28;20038;-69
2023/07/09 08:13:13;;;;;;;20.33;13.17;;;;;;;28.74;56.27;100260.88;5116730;28;20069;-69
2023/07/09 08:15:38;;;;;;;21.07;13.50;;;;;;;28.88;55.91;100267.91;5116548;28;20606;-68
2023/07/09 08:18:04;;;;;;;19.95;13.23;;;;;;;28.81;55.12;100270.25;5114454;28;20023;-68
2023/07/09 08:20:29;;;;;;;17.40;13.90;;;;;;;28.65;55.12;100273.31;5116762;28;20134;-68
2023/07/09 08:22:55;;;;;;;20.30;13.37;;;;;;;28.60;55.19;100275.53;5116679;28;20099;-68
2023/07/09 08:25:20;;;;;;;19.17;12.82;;;;;;;28.64;55.40;100287.84;5098279;28;20047;-69
2023/07/09 08:27:46;;;;;;;19.77;12.43;;;;;;;28.71;55.05;100277.41;5116681;28;20019;-69
2023/07/09 08:30:11;;;;;;;19.47;12.77;;;;;;;28.80;55.17;100273.97;5119289;28;20028;-69
2023/07/09 08:32:37;;;;;;;18.43;11.77;;;;;;;28.89;54.84;100275.06;5120219;28;20023;-68
2023/07/09 08:35:02;;;;;;;18.23;12.77;;;;;;;28.96;54.75;100276.31;5120395;28;20023;-69
2023/07/09 08:37:28;;;;;;;16.90;11.40;;;;;;;29.02;54.37;100270.38;5119852;28;20032;-69
2023/07/09 08:39:53;;;;;;;18.60;11.60;;;;;;;29.11;54.34;100286.84;5120082;28;20020;-69
2023/07/09 08:42:39;;;;;;;16.45;11.52;;;;;;;29.10;54.07;100283.31;5120149;28;20016;-69
2023/07/09 08:45:37;;;;;;;16.37;12.40;;;;;;;29.15;53.79;100296.47;5120093;28;20042;-69
2023/07/09 08:48:24;;;;;;;18.23;12.68;;;;;;;29.02;53.90;100291.19;5107112;28;23422;-69
2023/07/09 08:50:59;;;;;;;17.67;12.40;;;;;;;28.80;54.21;100292.94;5119875;28;20024;-69
2023/07/09 08:53:37;;;;;;;18.13;12.13;;;;;;;28.54;54.45;100295.84;5119909;28;20047;-69
2023/07/09 08:56:03;;;;;;;18.80;11.23;;;;;;;28.38;55.17;100292.66;5112448;28;20078;-70
2023/07/09 08:58:31;;;;;;;18.13;11.80;;;;;;;28.33;54.98;100296.56;5119687;28;20015;-69
2023/07/09 09:01:00;;;;;;;14.75;10.45;;;;;;;28.31;55.46;100293.13;5119951;28;20023;-69
2023/07/09 09:03:37;;;;;;;16.60;11.07;;;;;;;28.35;55.13;100297.34;5119564;28;20502;-69
2023/07/09 09:06:15;;;;;;;16.50;11.10;;;;;;;28.36;55.34;100296.34;5101090;28;20024;-69
2023/07/09 09:09:01;;;;;;;14.63;10.73;;;;;;;28.31;55.24;100294.97;5119726;28;20020;-69
2023/07/09 09:11:42;;;;;;;17.02;10.85;;;;;;;28.18;55.52;100300.50;5119403;28;20032;-69
2023/07/09 09:14:26;;;;;;;17.48;11.50;;;;;;;28.12;55.56;100303.66;5119358;28;20122;-69
2023/07/09 09:16:53;;;;;;;17.42;10.80;;;;;;;28.12;55.98;100298.25;5119298;28;20081;-69
2023/07/09 09:19:23;;;;;;;17.00;11.07;;;;;;;28.15;55.81;100293.47;5116728;28;20027;-69
2023/07/09 09:21:55;;;;;;;18.00;12.97;;;;;;;28.26;55.67;100303.47;5119172;28;20034;-69
2023/07/09 09:24:33;;;;;;;20.83;14.23;;;;;;;28.49;55.64;100300.78;5119301;28;20098;-69
2023/07/09 09:26:59;;;;;;;17.52;11.57;;;;;;;28.68;55.00;100307.44;5119432;28;20038;-69
2023/07/09 09:29:25;;;;;;;14.98;10.70;;;;;;;28.91;54.63;100298.34;5119141;28;20445;-69
2023/07/09 09:31:57;;;;;;;19.43;12.07;;;;;;;29.02;54.23;100302.03;5100648;28;20040;-69
2023/07/09 09:34:29;;;;;;;18.25;11.32;;;;;;;29.25;53.85;100302.88;5119201;28;20031;-69
2023/07/09 09:36:57;;;;;;;15.63;11.13;;;;;;;29.50;53.55;100298.13;5118852;28;20089;-69
2023/07/09 09:39:25;;;;;;;17.65;11.50;;;;;;;29.49;53.18;100305.41;5100418;28;20133;-69
2023/07/09 09:41:54;;;;;;;20.17;12.45;;;;;;;29.40;53.24;100306.16;5118765;28;20035;-69
2023/07/09 09:44:25;;;;;;;16.47;11.93;;;;;;;29.23;53.72;100312.97;5118698;28;20068;-69
2023/07/09 09:46:51;;;;;;;16.17;12.15;;;;;;;29.12;53.95;100307.56;5118604;28;20055;-69
2023/07/09 09:49:16;;;;;;;19.38;11.63;;;;;;;28.97;54.17;100321.41;5100687;28;20039;-69
2023/07/09 09:51:45;;;;;;;21.90;11.87;;;;;;;28.98;54.12;100319.53;5118476;28;20028;-69
2023/07/09 09:54:20;;;;;;;17.85;11.50;;;;;;;29.21;54.00;100318.50;5100343;28;20490;-69
2023/07/09 09:56:47;;;;;;;17.80;12.43;;;;;;;29.25;53.57;100323.69;5118448;28;20079;-69
2023/07/09 09:59:19;;;;;;;18.33;11.77;;;;;;;29.19;53.87;100328.63;5118706;28;20028;-69
2023/07/09 10:01:45;;;;;;;39.60;12.77;;;;;;;29.21;53.93;100328.53;5100015;28;20546;-69
2023/07/09 10:04:17;;;;;;;17.60;12.25;;;;;;;29.28;53.80;100337.00;5118604;28;20439;-69
2023/07/09 10:06:50;;;;;;;19.10;11.40;;;;;;;29.41;53.80;100335.03;5118317;28;20019;-69
2023/07/09 10:09:45;;;;;;;18.05;11.13;;;;;;;29.49;53.16;100337.13;5118367;28;20096;-69
2023/07/09 10:12:29;;;;;;;21.00;12.20;;;;;;;29.53;53.27;100333.16;5110491;28;20039;-69
2023/07/09 10:15:33;;;;;;;14.95;10.90;;;;;;;29.35;53.50;100343.66;5118212;28;20897;-69
2023/07/09 10:18:03;;;;;;;16.50;11.10;;;;;;;29.32;53.43;100336.63;5115953;28;20036;-69
2023/07/09 10:20:51;;;;;;;18.83;13.40;;;;;;;29.39;53.56;100331.56;5118325;28;20092;-69
2023/07/09 10:24:03;;;;;;;17.15;12.38;;;;;;;29.45;53.48;100331.06;5118215;28;20500;-69
2023/07/09 10:26:41;;;;;;;18.23;12.25;;;;;;;29.56;52.86;100332.88;5025133;28;20038;-69
2023/07/09 10:29:37;;;;;;;16.35;11.30;;;;;;;29.51;52.94;100341.41;5112868;28;20036;-69
2023/07/09 10:32:25;;;;;;;18.15;12.15;;;;;;;29.68;52.64;100335.59;5117829;28;20060;-69
2023/07/09 10:34:59;;;;;;;19.33;12.17;;;;;;;29.79;52.64;100346.38;5118113;28;20035;-69
2023/07/09 10:37:42;;;;;;;15.32;10.98;;;;;;;29.74;52.74;100349.47;5099298;28;20079;-69
2023/07/09 10:40:14;;;;;;;20.50;12.40;;;;;;;29.76;52.81;100344.78;5117835;28;20027;-69
2023/07/09 10:42:50;;;;;;;21.27;12.10;;;;;;;29.69;52.55;100337.31;5117467;28;20038;-69
2023/07/09 10:45:42;;;;;;;17.38;12.00;;;;;;;29.83;52.47;100339.69;5117687;28;20407;-69
2023/07/09 10:48:17;;;;;;;17.77;12.00;;;;;;;30.00;51.78;100340.97;5109280;28;20042;-69
2023/07/09 10:50:50;;;;;;;18.63;12.77;;;;;;;30.03;51.57;100334.47;5117726;28;20028;-69
2023/07/09 10:53:31;;;;;;;14.95;11.18;;;;;;;30.14;51.56;100336.25;5117007;28;20066;-69
2023/07/09 10:56:16;;;;;;;18.55;11.48;;;;;;;30.22;51.39;100334.59;5109299;28;20475;-69
2023/07/09 10:59:00;;;;;;;27.05;17.80;;;;;;;30.19;51.79;100334.88;5098969;28;20051;-69
2023/07/09 11:01:55;;;;;;;20.60;13.30;;;;;;;30.02;51.97;100338.16;5117374;28;20023;-69
2023/07/09 11:04:35;;;;;;;18.55;11.15;;;;;;;29.90;51.88;100340.03;5081372;28;20043;-69
2023/07/09 11:07:10;;;;;;;17.42;11.00;;;;;;;30.08;52.11;100333.09;5117339;28;20034;-69
2023/07/09 11:09:41;;;;;;;17.17;11.02;;;;;;;30.27;52.19;100336.06;5117360;28;20105;-69
2023/07/09 11:12:17;;;;;;;17.50;11.23;;;;;;;30.60;51.77;100332.25;5108630;28;20032;-69
2023/07/09 11:14:55;;;;;;;17.57;11.10;;;;;;;30.73;50.98;100336.63;5117228;28;20016;-69
2023/07/09 11:17:22;;;;;;;17.13;10.40;;;;;;;30.83;51.17;100332.09;5114533;28;20602;-69
2023/07/09 11:19:59;;;;;;;15.48;11.27;;;;;;;31.01;50.31;100328.75;5117223;28;20031;-69
2023/07/09 11:22:38;;;;;;;15.43;10.65;;;;;;;31.19;49.67;100324.38;5117002;28;20019;-69
2023/07/09 11:25:26;;;;;;;13.98;10.27;;;;;;;31.36;49.45;100324.69;5117370;28;20104;-69